sensor_id;sensor_type;location;lat;lon;timestamp;P1;durP1;ratioP1;P2;durP2;ratioP2
73863;SDS011;62200;52.062;5.292;2022-07-29T00:01:15;2.40;;;0.90;;
73863;SDS011;62200;52.062;5.292;2022-07-29T00:03:41;2.13;;;0.70;;
73863;SDS011;62200;52.062;5.292;2022-07-29T00:06:06;1.45;;;0.65;;
73863;SDS011;62200;52.062;5.292;2022-07-29T00:08:32;1.90;;;0.80;;
73863;SDS011;62200;52.062;5.292;2022-07-29T00:10:58;1.48;;;0.65;;
73863;SDS011;62200;52.062;5.292;2022-07-29T00:13:23;3.10;;;0.75;;
73863;SDS011;62200;52.062;5.292;2022-07-29T00:15:49;1.85;;;0.80;;
73863;SDS011;62200;52.062;5.292;2022-07-29T00:18:14;2.35;;;0.88;;
73863;SDS011;62200;52.062;5.292;2022-07-29T00:20:40;2.05;;;0.63;;
73863;SDS011;62200;52.062;5.292;2022-07-29T00:23:05;1.73;;;0.70;;
73863;SDS011;62200;52.062;5.292;2022-07-29T00:25:31;2.88;;;0.82;;
73863;SDS011;62200;52.062;5.292;2022-07-29T00:27:56;3.53;;;0.95;;
73863;SDS011;62200;52.062;5.292;2022-07-29T00:30:22;2.30;;;0.93;;
73863;SDS011;62200;52.062;5.292;2022-07-29T00:32:47;2.75;;;0.77;;
73863;SDS011;62200;52.062;5.292;2022-07-29T00:35:13;2.35;;;0.82;;
73863;SDS011;62200;52.062;5.292;2022-07-29T00:37:56;3.75;;;0.80;;
73863;SDS011;62200;52.062;5.292;2022-07-29T00:40:22;2.60;;;0.90;;
73863;SDS011;62200;52.062;5.292;2022-07-29T00:42:48;4.15;;;0.90;;
73863;SDS011;62200;52.062;5.292;2022-07-29T00:45:15;2.22;;;0.88;;
73863;SDS011;62200;52.062;5.292;2022-07-29T00:47:42;1.35;;;0.70;;
73863;SDS011;62200;52.062;5.292;2022-07-29T00:50:08;3.67;;;0.88;;
73863;SDS011;62200;52.062;5.292;2022-07-29T00:52:36;2.45;;;0.82;;
73863;SDS011;62200;52.062;5.292;2022-07-29T00:55:03;2.33;;;0.63;;
73863;SDS011;62200;52.062;5.292;2022-07-29T00:57:30;3.60;;;0.70;;
73863;SDS011;62200;52.062;5.292;2022-07-29T00:59:56;1.45;;;0.68;;
73863;SDS011;62200;52.062;5.292;2022-07-29T01:02:21;2.97;;;0.90;;
73863;SDS011;62200;52.062;5.292;2022-07-29T01:04:47;3.42;;;0.80;;
73863;SDS011;62200;52.062;5.292;2022-07-29T01:07:13;3.25;;;0.85;;
73863;SDS011;62200;52.062;5.292;2022-07-29T01:09:39;2.72;;;0.88;;
73863;SDS011;62200;52.062;5.292;2022-07-29T01:12:05;2.05;;;0.80;;
73863;SDS011;62200;52.062;5.292;2022-07-29T01:14:32;2.35;;;0.80;;
73863;SDS011;62200;52.062;5.292;2022-07-29T01:17:11;3.95;;;1.00;;
73863;SDS011;62200;52.062;5.292;2022-07-29T01:20:07;2.88;;;0.85;;
73863;SDS011;62200;52.062;5.292;2022-07-29T01:25:38;3.45;;;0.82;;
73863;SDS011;62200;52.062;5.292;2022-07-29T01:31:06;5.32;;;0.80;;
73863;SDS011;62200;52.062;5.292;2022-07-29T01:33:37;3.58;;;1.10;;
73863;SDS011;62200;52.062;5.292;2022-07-29T01:36:32;4.80;;;1.10;;
73863;SDS011;62200;52.062;5.292;2022-07-29T01:39:08;4.30;;;0.90;;
73863;SDS011;62200;52.062;5.292;2022-07-29T01:41:38;2.40;;;0.70;;
73863;SDS011;62200;52.062;5.292;2022-07-29T01:44:18;2.55;;;0.73;;
73863;SDS011;62200;52.062;5.292;2022-07-29T01:46:51;1.58;;;0.65;;
73863;SDS011;62200;52.062;5.292;2022-07-29T01:49:21;4.75;;;1.10;;
73863;SDS011;62200;52.062;5.292;2022-07-29T01:51:51;3.42;;;0.93;;
73863;SDS011;62200;52.062;5.292;2022-07-29T01:54:35;3.97;;;1.10;;
73863;SDS011;62200;52.062;5.292;2022-07-29T01:57:08;3.50;;;0.90;;
73863;SDS011;62200;52.062;5.292;2022-07-29T01:59:36;4.47;;;1.05;;
73863;SDS011;62200;52.062;5.292;2022-07-29T02:02:03;4.05;;;1.15;;
73863;SDS011;62200;52.062;5.292;2022-07-29T02:04:33;2.50;;;1.10;;
73863;SDS011;62200;52.062;5.292;2022-07-29T02:07:01;4.97;;;1.20;;
73863;SDS011;62200;52.062;5.292;2022-07-29T02:09:30;3.15;;;0.90;;
73863;SDS011;62200;52.062;5.292;2022-07-29T02:11:58;6.38;;;1.15;;
73863;SDS011;62200;52.062;5.292;2022-07-29T02:14:26;3.13;;;1.20;;
73863;SDS011;62200;52.062;5.292;2022-07-29T02:16:56;3.65;;;1.10;;
73863;SDS011;62200;52.062;5.292;2022-07-29T02:19:25;3.13;;;1.65;;
73863;SDS011;62200;52.062;5.292;2022-07-29T02:21:53;2.80;;;1.02;;
73863;SDS011;62200;52.062;5.292;2022-07-29T02:24:20;2.22;;;0.95;;
73863;SDS011;62200;52.062;5.292;2022-07-29T02:26:47;11.38;;;1.35;;
73863;SDS011;62200;52.062;5.292;2022-07-29T02:29:14;2.97;;;1.10;;
73863;SDS011;62200;52.062;5.292;2022-07-29T02:31:41;2.67;;;1.08;;
73863;SDS011;62200;52.062;5.292;2022-07-29T02:34:09;3.58;;;0.98;;
73863;SDS011;62200;52.062;5.292;2022-07-29T02:36:36;3.83;;;0.90;;
73863;SDS011;62200;52.062;5.292;2022-07-29T02:39:03;2.35;;;1.00;;
73863;SDS011;62200;52.062;5.292;2022-07-29T02:41:30;3.67;;;1.20;;
73863;SDS011;62200;52.062;5.292;2022-07-29T02:44:05;4.45;;;1.10;;
73863;SDS011;62200;52.062;5.292;2022-07-29T02:46:35;4.22;;;1.10;;
73863;SDS011;62200;52.062;5.292;2022-07-29T02:51:41;3.65;;;1.00;;
73863;SDS011;62200;52.062;5.292;2022-07-29T02:54:10;3.78;;;1.00;;
73863;SDS011;62200;52.062;5.292;2022-07-29T02:56:39;2.33;;;0.73;;
73863;SDS011;62200;52.062;5.292;2022-07-29T02:59:08;3.10;;;1.20;;
73863;SDS011;62200;52.062;5.292;2022-07-29T03:01:36;3.67;;;1.05;;
73863;SDS011;62200;52.062;5.292;2022-07-29T03:04:05;2.50;;;0.90;;
73863;SDS011;62200;52.062;5.292;2022-07-29T03:06:33;2.30;;;1.08;;
73863;SDS011;62200;52.062;5.292;2022-07-29T03:08:59;3.00;;;1.20;;
73863;SDS011;62200;52.062;5.292;2022-07-29T03:11:25;3.92;;;1.10;;
73863;SDS011;62200;52.062;5.292;2022-07-29T03:13:51;5.13;;;0.88;;
73863;SDS011;62200;52.062;5.292;2022-07-29T03:16:18;2.55;;;1.13;;
73863;SDS011;62200;52.062;5.292;2022-07-29T03:18:45;2.53;;;0.80;;
73863;SDS011;62200;52.062;5.292;2022-07-29T03:21:11;3.30;;;0.98;;
73863;SDS011;62200;52.062;5.292;2022-07-29T03:23:36;3.10;;;1.00;;
73863;SDS011;62200;52.062;5.292;2022-07-29T03:26:02;4.20;;;1.25;;
73863;SDS011;62200;52.062;5.292;2022-07-29T03:28:28;2.50;;;1.10;;
73863;SDS011;62200;52.062;5.292;2022-07-29T03:30:54;4.70;;;1.40;;
73863;SDS011;62200;52.062;5.292;2022-07-29T03:33:20;2.33;;;1.15;;
73863;SDS011;62200;52.062;5.292;2022-07-29T03:35:45;3.35;;;0.88;;
73863;SDS011;62200;52.062;5.292;2022-07-29T03:38:11;3.65;;;1.27;;
73863;SDS011;62200;52.062;5.292;2022-07-29T03:40:44;2.80;;;1.10;;
73863;SDS011;62200;52.062;5.292;2022-07-29T03:43:14;6.20;;;1.65;;
73863;SDS011;62200;52.062;5.292;2022-07-29T03:45:42;5.95;;;1.30;;
73863;SDS011;62200;52.062;5.292;2022-07-29T03:48:12;4.07;;;1.08;;
73863;SDS011;62200;52.062;5.292;2022-07-29T03:50:40;2.42;;;0.73;;
73863;SDS011;62200;52.062;5.292;2022-07-29T03:53:05;3.33;;;1.20;;
73863;SDS011;62200;52.062;5.292;2022-07-29T03:55:32;2.80;;;1.10;;
73863;SDS011;62200;52.062;5.292;2022-07-29T03:58:02;4.38;;;0.80;;
73863;SDS011;62200;52.062;5.292;2022-07-29T04:00:28;3.42;;;1.20;;
73863;SDS011;62200;52.062;5.292;2022-07-29T04:02:55;1.65;;;1.00;;
73863;SDS011;62200;52.062;5.292;2022-07-29T04:05:21;4.10;;;1.27;;
73863;SDS011;62200;52.062;5.292;2022-07-29T04:07:47;5.25;;;1.27;;
73863;SDS011;62200;52.062;5.292;2022-07-29T04:10:13;2.25;;;0.85;;
73863;SDS011;62200;52.062;5.292;2022-07-29T04:12:40;3.20;;;1.17;;
73863;SDS011;62200;52.062;5.292;2022-07-29T04:15:06;2.80;;;1.20;;
73863;SDS011;62200;52.062;5.292;2022-07-29T04:17:32;4.07;;;1.20;;
73863;SDS011;62200;52.062;5.292;2022-07-29T04:20:00;3.70;;;1.40;;
73863;SDS011;62200;52.062;5.292;2022-07-29T04:22:25;4.38;;;1.05;;
73863;SDS011;62200;52.062;5.292;2022-07-29T04:24:51;3.05;;;1.10;;
73863;SDS011;62200;52.062;5.292;2022-07-29T04:27:16;5.50;;;1.30;;
73863;SDS011;62200;52.062;5.292;2022-07-29T04:29:42;2.42;;;1.10;;
73863;SDS011;62200;52.062;5.292;2022-07-29T04:32:07;2.45;;;0.90;;
73863;SDS011;62200;52.062;5.292;2022-07-29T04:34:33;4.13;;;1.02;;
73863;SDS011;62200;52.062;5.292;2022-07-29T04:36:58;2.92;;;1.23;;
73863;SDS011;62200;52.062;5.292;2022-07-29T04:39:24;4.43;;;0.90;;
73863;SDS011;62200;52.062;5.292;2022-07-29T04:41:49;3.95;;;1.20;;
73863;SDS011;62200;52.062;5.292;2022-07-29T04:44:15;3.78;;;1.55;;
73863;SDS011;62200;52.062;5.292;2022-07-29T04:46:41;3.05;;;1.60;;
73863;SDS011;62200;52.062;5.292;2022-07-29T04:49:06;4.85;;;1.10;;
73863;SDS011;62200;52.062;5.292;2022-07-29T04:51:32;2.28;;;1.02;;
73863;SDS011;62200;52.062;5.292;2022-07-29T04:53:57;2.55;;;1.08;;
73863;SDS011;62200;52.062;5.292;2022-07-29T04:56:23;6.22;;;1.30;;
73863;SDS011;62200;52.062;5.292;2022-07-29T04:58:48;4.03;;;0.90;;
73863;SDS011;62200;52.062;5.292;2022-07-29T05:01:14;4.95;;;1.33;;
73863;SDS011;62200;52.062;5.292;2022-07-29T05:03:39;3.47;;;1.20;;
73863;SDS011;62200;52.062;5.292;2022-07-29T05:06:05;4.15;;;1.23;;
73863;SDS011;62200;52.062;5.292;2022-07-29T05:08:30;6.78;;;1.17;;
73863;SDS011;62200;52.062;5.292;2022-07-29T05:10:57;3.47;;;1.02;;
73863;SDS011;62200;52.062;5.292;2022-07-29T05:13:23;3.17;;;1.00;;
73863;SDS011;62200;52.062;5.292;2022-07-29T05:15:49;4.50;;;1.27;;
73863;SDS011;62200;52.062;5.292;2022-07-29T05:18:14;2.53;;;1.15;;
73863;SDS011;62200;52.062;5.292;2022-07-29T05:20:40;5.47;;;1.30;;
73863;SDS011;62200;52.062;5.292;2022-07-29T05:23:05;2.78;;;1.08;;
73863;SDS011;62200;52.062;5.292;2022-07-29T05:25:31;5.22;;;1.00;;
73863;SDS011;62200;52.062;5.292;2022-07-29T05:27:56;5.57;;;1.50;;
73863;SDS011;62200;52.062;5.292;2022-07-29T05:30:22;2.70;;;1.10;;
73863;SDS011;62200;52.062;5.292;2022-07-29T05:32:48;3.90;;;1.27;;
73863;SDS011;62200;52.062;5.292;2022-07-29T05:35:14;6.25;;;1.25;;
73863;SDS011;62200;52.062;5.292;2022-07-29T05:37:40;3.35;;;1.30;;
73863;SDS011;62200;52.062;5.292;2022-07-29T05:40:06;3.15;;;1.17;;
73863;SDS011;62200;52.062;5.292;2022-07-29T05:42:32;2.45;;;1.00;;
73863;SDS011;62200;52.062;5.292;2022-07-29T05:44:58;2.65;;;1.25;;
73863;SDS011;62200;52.062;5.292;2022-07-29T05:47:24;2.70;;;1.08;;
73863;SDS011;62200;52.062;5.292;2022-07-29T05:49:50;3.70;;;1.30;;
73863;SDS011;62200;52.062;5.292;2022-07-29T05:52:16;2.95;;;1.02;;
73863;SDS011;62200;52.062;5.292;2022-07-29T05:54:41;4.53;;;1.20;;
73863;SDS011;62200;52.062;5.292;2022-07-29T05:57:07;4.95;;;1.27;;
73863;SDS011;62200;52.062;5.292;2022-07-29T05:59:36;2.95;;;1.30;;
73863;SDS011;62200;52.062;5.292;2022-07-29T06:02:02;3.45;;;1.23;;
73863;SDS011;62200;52.062;5.292;2022-07-29T06:04:29;3.75;;;1.40;;
73863;SDS011;62200;52.062;5.292;2022-07-29T06:06:55;5.40;;;1.65;;
73863;SDS011;62200;52.062;5.292;2022-07-29T06:09:21;4.75;;;1.38;;
73863;SDS011;62200;52.062;5.292;2022-07-29T06:11:47;6.07;;;1.23;;
73863;SDS011;62200;52.062;5.292;2022-07-29T06:14:13;2.90;;;1.20;;
73863;SDS011;62200;52.062;5.292;2022-07-29T06:16:39;3.05;;;1.17;;
73863;SDS011;62200;52.062;5.292;2022-07-29T06:19:04;3.38;;;1.48;;
73863;SDS011;62200;52.062;5.292;2022-07-29T06:21:29;3.22;;;1.40;;
73863;SDS011;62200;52.062;5.292;2022-07-29T06:23:55;5.85;;;1.38;;
73863;SDS011;62200;52.062;5.292;2022-07-29T06:26:20;3.35;;;1.40;;
73863;SDS011;62200;52.062;5.292;2022-07-29T06:28:46;2.40;;;1.10;;
73863;SDS011;62200;52.062;5.292;2022-07-29T06:31:11;3.83;;;1.27;;
73863;SDS011;62200;52.062;5.292;2022-07-29T06:33:39;3.53;;;1.50;;
73863;SDS011;62200;52.062;5.292;2022-07-29T06:36:04;2.22;;;1.20;;
73863;SDS011;62200;52.062;5.292;2022-07-29T06:38:30;6.45;;;1.73;;
73863;SDS011;62200;52.062;5.292;2022-07-29T06:40:56;3.85;;;1.33;;
73863;SDS011;62200;52.062;5.292;2022-07-29T06:43:25;3.25;;;1.55;;
73863;SDS011;62200;52.062;5.292;2022-07-29T06:45:51;3.65;;;1.50;;
73863;SDS011;62200;52.062;5.292;2022-07-29T06:48:17;3.05;;;1.60;;
73863;SDS011;62200;52.062;5.292;2022-07-29T06:50:43;3.92;;;1.75;;
73863;SDS011;62200;52.062;5.292;2022-07-29T06:53:08;3.25;;;1.63;;
73863;SDS011;62200;52.062;5.292;2022-07-29T06:55:34;4.90;;;1.92;;
73863;SDS011;62200;52.062;5.292;2022-07-29T06:57:59;4.10;;;2.00;;
73863;SDS011;62200;52.062;5.292;2022-07-29T07:00:24;3.55;;;1.90;;
73863;SDS011;62200;52.062;5.292;2022-07-29T07:02:50;5.78;;;1.60;;
73863;SDS011;62200;52.062;5.292;2022-07-29T07:05:15;6.85;;;1.90;;
73863;SDS011;62200;52.062;5.292;2022-07-29T07:07:41;5.20;;;1.60;;
73863;SDS011;62200;52.062;5.292;2022-07-29T07:10:06;3.47;;;1.77;;
73863;SDS011;62200;52.062;5.292;2022-07-29T07:12:32;6.10;;;1.80;;
73863;SDS011;62200;52.062;5.292;2022-07-29T07:14:57;4.25;;;2.00;;
73863;SDS011;62200;52.062;5.292;2022-07-29T07:17:23;4.13;;;1.50;;
73863;SDS011;62200;52.062;5.292;2022-07-29T07:19:49;4.53;;;2.13;;
73863;SDS011;62200;52.062;5.292;2022-07-29T07:22:14;3.08;;;1.70;;
73863;SDS011;62200;52.062;5.292;2022-07-29T07:24:40;3.95;;;1.55;;
73863;SDS011;62200;52.062;5.292;2022-07-29T07:27:05;5.95;;;1.75;;
73863;SDS011;62200;52.062;5.292;2022-07-29T07:29:30;4.13;;;1.25;;
73863;SDS011;62200;52.062;5.292;2022-07-29T07:31:57;3.22;;;1.40;;
73863;SDS011;62200;52.062;5.292;2022-07-29T07:34:22;3.08;;;1.58;;
73863;SDS011;62200;52.062;5.292;2022-07-29T07:36:48;6.57;;;1.65;;
73863;SDS011;62200;52.062;5.292;2022-07-29T07:39:13;3.90;;;1.70;;
73863;SDS011;62200;52.062;5.292;2022-07-29T07:41:39;3.95;;;1.50;;
73863;SDS011;62200;52.062;5.292;2022-07-29T07:44:04;4.43;;;1.60;;
73863;SDS011;62200;52.062;5.292;2022-07-29T07:46:30;4.28;;;1.50;;
73863;SDS011;62200;52.062;5.292;2022-07-29T07:48:56;4.30;;;1.40;;
73863;SDS011;62200;52.062;5.292;2022-07-29T07:51:22;2.88;;;1.25;;
73863;SDS011;62200;52.062;5.292;2022-07-29T07:53:47;4.47;;;1.30;;
73863;SDS011;62200;52.062;5.292;2022-07-29T07:56:15;6.80;;;1.50;;
73863;SDS011;62200;52.062;5.292;2022-07-29T07:58:41;4.57;;;1.92;;
73863;SDS011;62200;52.062;5.292;2022-07-29T08:01:07;5.45;;;1.65;;
73863;SDS011;62200;52.062;5.292;2022-07-29T08:03:33;6.13;;;1.35;;
73863;SDS011;62200;52.062;5.292;2022-07-29T08:05:59;2.75;;;1.35;;
73863;SDS011;62200;52.062;5.292;2022-07-29T08:08:24;4.47;;;1.13;;
73863;SDS011;62200;52.062;5.292;2022-07-29T08:10:50;5.18;;;1.60;;
73863;SDS011;62200;52.062;5.292;2022-07-29T08:13:22;4.75;;;1.40;;
73863;SDS011;62200;52.062;5.292;2022-07-29T08:15:50;2.85;;;1.10;;
73863;SDS011;62200;52.062;5.292;2022-07-29T08:18:26;7.47;;;1.85;;
73863;SDS011;62200;52.062;5.292;2022-07-29T08:20:53;7.05;;;1.85;;
73863;SDS011;62200;52.062;5.292;2022-07-29T08:23:18;3.63;;;1.45;;
73863;SDS011;62200;52.062;5.292;2022-07-29T08:25:44;4.60;;;1.40;;
73863;SDS011;62200;52.062;5.292;2022-07-29T08:28:09;2.40;;;1.30;;
73863;SDS011;62200;52.062;5.292;2022-07-29T08:30:35;6.47;;;1.45;;
73863;SDS011;62200;52.062;5.292;2022-07-29T08:33:00;4.63;;;1.30;;
73863;SDS011;62200;52.062;5.292;2022-07-29T08:35:26;3.60;;;1.30;;
73863;SDS011;62200;52.062;5.292;2022-07-29T08:37:52;3.40;;;1.30;;
73863;SDS011;62200;52.062;5.292;2022-07-29T08:40:18;3.22;;;1.17;;
73863;SDS011;62200;52.062;5.292;2022-07-29T08:42:45;3.67;;;1.38;;
73863;SDS011;62200;52.062;5.292;2022-07-29T08:45:11;5.78;;;1.33;;
73863;SDS011;62200;52.062;5.292;2022-07-29T08:47:38;4.18;;;1.40;;
73863;SDS011;62200;52.062;5.292;2022-07-29T08:50:05;6.18;;;1.52;;
73863;SDS011;62200;52.062;5.292;2022-07-29T08:52:31;4.72;;;1.40;;
73863;SDS011;62200;52.062;5.292;2022-07-29T08:55:00;3.17;;;1.10;;
73863;SDS011;62200;52.062;5.292;2022-07-29T08:57:26;5.05;;;1.80;;
73863;SDS011;62200;52.062;5.292;2022-07-29T08:59:53;4.20;;;1.48;;
73863;SDS011;62200;52.062;5.292;2022-07-29T09:02:20;6.35;;;1.30;;
73863;SDS011;62200;52.062;5.292;2022-07-29T09:04:47;3.63;;;1.27;;
73863;SDS011;62200;52.062;5.292;2022-07-29T09:07:17;3.55;;;1.20;;
73863;SDS011;62200;52.062;5.292;2022-07-29T09:09:43;3.80;;;1.67;;
73863;SDS011;62200;52.062;5.292;2022-07-29T09:12:11;4.78;;;1.33;;
73863;SDS011;62200;52.062;5.292;2022-07-29T09:14:37;3.03;;;1.30;;
73863;SDS011;62200;52.062;5.292;2022-07-29T09:17:04;4.30;;;1.60;;
73863;SDS011;62200;52.062;5.292;2022-07-29T09:19:30;4.63;;;1.40;;
73863;SDS011;62200;52.062;5.292;2022-07-29T09:21:59;3.53;;;1.20;;
73863;SDS011;62200;52.062;5.292;2022-07-29T09:24:29;5.38;;;1.55;;
73863;SDS011;62200;52.062;5.292;2022-07-29T09:27:11;7.18;;;1.48;;
73863;SDS011;62200;52.062;5.292;2022-07-29T09:29:44;4.57;;;1.30;;
73863;SDS011;62200;52.062;5.292;2022-07-29T09:32:10;4.53;;;1.70;;
73863;SDS011;62200;52.062;5.292;2022-07-29T09:34:35;5.63;;;1.08;;
73863;SDS011;62200;52.062;5.292;2022-07-29T09:37:01;6.43;;;1.50;;
73863;SDS011;62200;52.062;5.292;2022-07-29T09:39:30;2.28;;;1.10;;
73863;SDS011;62200;52.062;5.292;2022-07-29T09:41:56;3.42;;;1.25;;
73863;SDS011;62200;52.062;5.292;2022-07-29T09:44:23;6.80;;;1.50;;
73863;SDS011;62200;52.062;5.292;2022-07-29T09:49:25;6.25;;;1.15;;
73863;SDS011;62200;52.062;5.292;2022-07-29T09:52:00;4.45;;;1.27;;
73863;SDS011;62200;52.062;5.292;2022-07-29T09:54:29;6.00;;;1.50;;
73863;SDS011;62200;52.062;5.292;2022-07-29T09:56:59;5.32;;;1.20;;
73863;SDS011;62200;52.062;5.292;2022-07-29T09:59:24;3.38;;;1.20;;
73863;SDS011;62200;52.062;5.292;2022-07-29T10:01:51;5.43;;;1.38;;
73863;SDS011;62200;52.062;5.292;2022-07-29T10:04:17;8.77;;;1.70;;
73863;SDS011;62200;52.062;5.292;2022-07-29T10:07:00;7.18;;;1.30;;
73863;SDS011;62200;52.062;5.292;2022-07-29T10:09:27;3.72;;;1.50;;
73863;SDS011;62200;52.062;5.292;2022-07-29T10:12:09;2.05;;;1.00;;
73863;SDS011;62200;52.062;5.292;2022-07-29T10:14:38;3.13;;;1.17;;
73863;SDS011;62200;52.062;5.292;2022-07-29T10:17:04;3.88;;;1.20;;
73863;SDS011;62200;52.062;5.292;2022-07-29T10:19:31;6.20;;;1.95;;
73863;SDS011;62200;52.062;5.292;2022-07-29T10:21:58;2.70;;;1.10;;
73863;SDS011;62200;52.062;5.292;2022-07-29T10:24:28;6.22;;;1.35;;
73863;SDS011;62200;52.062;5.292;2022-07-29T10:26:55;4.28;;;1.52;;
73863;SDS011;62200;52.062;5.292;2022-07-29T10:29:23;5.43;;;1.50;;
73863;SDS011;62200;52.062;5.292;2022-07-29T10:37:18;3.47;;;1.00;;
73863;SDS011;62200;52.062;5.292;2022-07-29T10:40:00;2.88;;;0.98;;
73863;SDS011;62200;52.062;5.292;2022-07-29T10:43:17;5.78;;;1.25;;
73863;SDS011;62200;52.062;5.292;2022-07-29T10:45:47;3.42;;;1.10;;
73863;SDS011;62200;52.062;5.292;2022-07-29T10:48:13;5.13;;;1.35;;
73863;SDS011;62200;52.062;5.292;2022-07-29T10:50:59;7.35;;;1.30;;
73863;SDS011;62200;52.062;5.292;2022-07-29T10:53:47;4.85;;;1.40;;
73863;SDS011;62200;52.062;5.292;2022-07-29T10:56:25;4.90;;;1.52;;
73863;SDS011;62200;52.062;5.292;2022-07-29T11:01:46;3.70;;;1.27;;
73863;SDS011;62200;52.062;5.292;2022-07-29T11:04:13;3.95;;;1.60;;
73863;SDS011;62200;52.062;5.292;2022-07-29T11:09:25;3.45;;;0.98;;
73863;SDS011;62200;52.062;5.292;2022-07-29T11:11:51;6.03;;;1.27;;
73863;SDS011;62200;52.062;5.292;2022-07-29T11:14:17;11.85;;;1.50;;
73863;SDS011;62200;52.062;5.292;2022-07-29T11:16:59;7.03;;;2.08;;
73863;SDS011;62200;52.062;5.292;2022-07-29T11:19:29;3.20;;;1.45;;
73863;SDS011;62200;52.062;5.292;2022-07-29T11:21:54;3.13;;;1.23;;
73863;SDS011;62200;52.062;5.292;2022-07-29T11:24:21;3.65;;;1.20;;
73863;SDS011;62200;52.062;5.292;2022-07-29T11:32:13;4.15;;;1.27;;
73863;SDS011;62200;52.062;5.292;2022-07-29T11:34:41;5.10;;;1.25;;
73863;SDS011;62200;52.062;5.292;2022-07-29T11:39:37;4.68;;;1.38;;
73863;SDS011;62200;52.062;5.292;2022-07-29T11:50:11;5.45;;;1.40;;
73863;SDS011;62200;52.062;5.292;2022-07-29T11:52:40;5.95;;;1.77;;
73863;SDS011;62200;52.062;5.292;2022-07-29T11:55:12;4.70;;;2.22;;
73863;SDS011;62200;52.062;5.292;2022-07-29T11:57:47;4.03;;;1.58;;
73863;SDS011;62200;52.062;5.292;2022-07-29T12:03:07;3.90;;;1.52;;
73863;SDS011;62200;52.062;5.292;2022-07-29T12:05:36;4.45;;;1.70;;
73863;SDS011;62200;52.062;5.292;2022-07-29T12:10:31;5.65;;;2.15;;
73863;SDS011;62200;52.062;5.292;2022-07-29T12:12:57;3.40;;;1.52;;
73863;SDS011;62200;52.062;5.292;2022-07-29T12:15:22;3.88;;;2.20;;
73863;SDS011;62200;52.062;5.292;2022-07-29T12:17:49;6.40;;;1.92;;
73863;SDS011;62200;52.062;5.292;2022-07-29T12:20:22;7.68;;;2.25;;
73863;SDS011;62200;52.062;5.292;2022-07-29T12:22:49;5.45;;;1.80;;
73863;SDS011;62200;52.062;5.292;2022-07-29T12:25:15;3.47;;;1.60;;
73863;SDS011;62200;52.062;5.292;2022-07-29T12:27:42;5.00;;;1.95;;
73863;SDS011;62200;52.062;5.292;2022-07-29T12:30:14;6.43;;;1.83;;
73863;SDS011;62200;52.062;5.292;2022-07-29T12:32:47;5.40;;;2.00;;
73863;SDS011;62200;52.062;5.292;2022-07-29T12:35:18;4.50;;;2.10;;
73863;SDS011;62200;52.062;5.292;2022-07-29T12:40:12;8.02;;;2.20;;
73863;SDS011;62200;52.062;5.292;2022-07-29T12:42:39;3.70;;;1.48;;
73863;SDS011;62200;52.062;5.292;2022-07-29T12:45:06;3.63;;;1.70;;
73863;SDS011;62200;52.062;5.292;2022-07-29T12:47:32;7.35;;;2.03;;
73863;SDS011;62200;52.062;5.292;2022-07-29T12:50:11;4.30;;;1.90;;
73863;SDS011;62200;52.062;5.292;2022-07-29T12:52:40;5.32;;;1.90;;
73863;SDS011;62200;52.062;5.292;2022-07-29T12:55:05;5.70;;;1.70;;
73863;SDS011;62200;52.062;5.292;2022-07-29T12:57:31;5.38;;;1.83;;
73863;SDS011;62200;52.062;5.292;2022-07-29T13:02:31;6.43;;;2.22;;
73863;SDS011;62200;52.062;5.292;2022-07-29T13:05:00;5.45;;;2.08;;
73863;SDS011;62200;52.062;5.292;2022-07-29T13:07:27;4.43;;;1.92;;
73863;SDS011;62200;52.062;5.292;2022-07-29T13:09:54;4.82;;;1.90;;
73863;SDS011;62200;52.062;5.292;2022-07-29T13:12:34;4.28;;;1.92;;
73863;SDS011;62200;52.062;5.292;2022-07-29T13:15:00;5.97;;;2.00;;
73863;SDS011;62200;52.062;5.292;2022-07-29T13:17:39;5.65;;;2.42;;
73863;SDS011;62200;52.062;5.292;2022-07-29T13:20:08;4.85;;;1.50;;
73863;SDS011;62200;52.062;5.292;2022-07-29T13:22:37;4.50;;;1.95;;
73863;SDS011;62200;52.062;5.292;2022-07-29T13:25:03;5.43;;;1.92;;
73863;SDS011;62200;52.062;5.292;2022-07-29T13:27:32;3.53;;;1.67;;
73863;SDS011;62200;52.062;5.292;2022-07-29T13:29:59;4.53;;;1.40;;
73863;SDS011;62200;52.062;5.292;2022-07-29T13:32:28;2.72;;;1.58;;
73863;SDS011;62200;52.062;5.292;2022-07-29T13:34:55;4.20;;;1.70;;
73863;SDS011;62200;52.062;5.292;2022-07-29T13:37:22;3.45;;;1.40;;
73863;SDS011;62200;52.062;5.292;2022-07-29T13:39:47;5.72;;;2.08;;
73863;SDS011;62200;52.062;5.292;2022-07-29T13:42:13;4.53;;;1.30;;
73863;SDS011;62200;52.062;5.292;2022-07-29T13:44:41;6.47;;;1.95;;
73863;SDS011;62200;52.062;5.292;2022-07-29T13:47:07;11.85;;;1.77;;
73863;SDS011;62200;52.062;5.292;2022-07-29T13:49:33;4.95;;;1.83;;
73863;SDS011;62200;52.062;5.292;2022-07-29T13:51:59;3.25;;;1.35;;
73863;SDS011;62200;52.062;5.292;2022-07-29T13:54:25;4.93;;;1.40;;
73863;SDS011;62200;52.062;5.292;2022-07-29T13:56:51;5.97;;;1.50;;
73863;SDS011;62200;52.062;5.292;2022-07-29T13:59:16;3.65;;;1.52;;
73863;SDS011;62200;52.062;5.292;2022-07-29T14:01:42;4.55;;;1.58;;
73863;SDS011;62200;52.062;5.292;2022-07-29T14:04:08;4.65;;;1.55;;
73863;SDS011;62200;52.062;5.292;2022-07-29T14:06:34;4.78;;;2.00;;
73863;SDS011;62200;52.062;5.292;2022-07-29T14:09:00;5.75;;;1.77;;
73863;SDS011;62200;52.062;5.292;2022-07-29T14:11:25;4.22;;;1.58;;
73863;SDS011;62200;52.062;5.292;2022-07-29T14:13:50;9.63;;;1.80;;
73863;SDS011;62200;52.062;5.292;2022-07-29T14:16:16;5.40;;;1.38;;
73863;SDS011;62200;52.062;5.292;2022-07-29T14:18:41;4.53;;;1.35;;
73863;SDS011;62200;52.062;5.292;2022-07-29T14:21:07;4.15;;;1.40;;
73863;SDS011;62200;52.062;5.292;2022-07-29T14:23:33;5.15;;;1.52;;
73863;SDS011;62200;52.062;5.292;2022-07-29T14:25:58;4.75;;;1.55;;
73863;SDS011;62200;52.062;5.292;2022-07-29T14:28:24;6.32;;;1.58;;
73863;SDS011;62200;52.062;5.292;2022-07-29T14:30:49;4.32;;;1.92;;
73863;SDS011;62200;52.062;5.292;2022-07-29T14:33:15;4.55;;;1.83;;
73863;SDS011;62200;52.062;5.292;2022-07-29T14:35:40;8.25;;;1.70;;
73863;SDS011;62200;52.062;5.292;2022-07-29T14:38:06;5.07;;;1.30;;
73863;SDS011;62200;52.062;5.292;2022-07-29T14:40:31;4.35;;;1.20;;
73863;SDS011;62200;52.062;5.292;2022-07-29T14:42:57;3.33;;;1.00;;
73863;SDS011;62200;52.062;5.292;2022-07-29T14:45:22;6.10;;;1.80;;
73863;SDS011;62200;52.062;5.292;2022-07-29T14:47:48;6.15;;;1.42;;
73863;SDS011;62200;52.062;5.292;2022-07-29T14:50:15;4.93;;;1.38;;
73863;SDS011;62200;52.062;5.292;2022-07-29T14:52:40;5.10;;;1.42;;
73863;SDS011;62200;52.062;5.292;2022-07-29T14:55:06;5.90;;;1.77;;
73863;SDS011;62200;52.062;5.292;2022-07-29T14:57:31;3.45;;;1.17;;
73863;SDS011;62200;52.062;5.292;2022-07-29T14:59:57;4.43;;;1.20;;
73863;SDS011;62200;52.062;5.292;2022-07-29T15:02:22;4.00;;;1.33;;
73863;SDS011;62200;52.062;5.292;2022-07-29T15:04:48;5.45;;;1.65;;
73863;SDS011;62200;52.062;5.292;2022-07-29T15:07:14;4.03;;;1.13;;
73863;SDS011;62200;52.062;5.292;2022-07-29T15:09:40;6.28;;;1.40;;
73863;SDS011;62200;52.062;5.292;2022-07-29T15:12:06;4.45;;;1.13;;
73863;SDS011;62200;52.062;5.292;2022-07-29T15:14:32;2.80;;;1.10;;
73863;SDS011;62200;52.062;5.292;2022-07-29T15:16:58;5.72;;;1.33;;
73863;SDS011;62200;52.062;5.292;2022-07-29T15:19:23;3.22;;;0.98;;
73863;SDS011;62200;52.062;5.292;2022-07-29T15:21:49;3.83;;;1.23;;
73863;SDS011;62200;52.062;5.292;2022-07-29T15:24:15;3.35;;;1.10;;
73863;SDS011;62200;52.062;5.292;2022-07-29T15:26:41;3.63;;;1.17;;
73863;SDS011;62200;52.062;5.292;2022-07-29T15:29:07;4.65;;;1.52;;
73863;SDS011;62200;52.062;5.292;2022-07-29T15:31:33;6.60;;;1.50;;
73863;SDS011;62200;52.062;5.292;2022-07-29T15:33:58;5.00;;;1.10;;
73863;SDS011;62200;52.062;5.292;2022-07-29T15:36:23;6.68;;;1.48;;
73863;SDS011;62200;52.062;5.292;2022-07-29T15:38:51;3.63;;;1.23;;